Wetterdaten: Woche 29.03.21 - 04.04.21 (KW13)
Datum Zeit Temp. A. Feuchte A. Luftdruck Regen Wind Richtung Taupunkt Windchill Windben
29.03.2021 00:00 4,4 C 71 % 1031,6 hPa 0,0 l/m 0,0 km/h N -0,5 C 4,4 C 0,0 km/h
29.03.2021 01:00 3,3 C 75 % 1031,7 hPa 0,0 l/m 0,0 km/h N -0,8 C 3,3 C 0,0 km/h
29.03.2021 02:00 2,5 C 78 % 1031,9 hPa 0,0 l/m 0,0 km/h N -1,0 C 2,5 C 0,0 km/h
29.03.2021 03:00 3,8 C 78 % 1031,8 hPa 0,0 l/m 0,0 km/h N 0,3 C 3,8 C 0,0 km/h
29.03.2021 04:00 4,1 C 76 % 1031,6 hPa 0,0 l/m 0,0 km/h N 0,3 C 4,1 C 0,0 km/h
29.03.2021 05:00 4,1 C 77 % 1031,5 hPa 0,0 l/m 0,0 km/h N 0,4 C 4,1 C 0,0 km/h
29.03.2021 06:00 4,2 C 77 % 1031,5 hPa 0,0 l/m 0,0 km/h N 0,6 C 4,2 C 0,0 km/h
29.03.2021 07:00 4,7 C 78 % 1031,9 hPa 0,0 l/m 0,0 km/h N 1,1 C 4,7 C 0,0 km/h
29.03.2021 08:00 5,5 C 79 % 1032,4 hPa 0,0 l/m 0,0 km/h N 2,1 C 5,5 C 0,0 km/h
29.03.2021 09:00 7,3 C 78 % 1032,5 hPa 0,0 l/m 0,0 km/h N 3,7 C 7,3 C 0,0 km/h
29.03.2021 10:00 12,0 C 64 % 1032,4 hPa 0,0 l/m 2,6 km/h N 5,1 C 12,0 C 8,4 km/h
29.03.2021 11:00 15,5 C 45 % 1032,3 hPa 0,0 l/m 6,0 km/h N 3,7 C 15,5 C 16,9 km/h
29.03.2021 12:00 16,3 C 43 % 1032,1 hPa 0,0 l/m 6,1 km/h N 3,6 C 16,3 C 17,3 km/h
29.03.2021 13:00 16,8 C 40 % 1031,6 hPa 0,0 l/m 5,8 km/h N 3,2 C 16,7 C 21,3 km/h
29.03.2021 14:00 17,5 C 39 % 1031,0 hPa 0,0 l/m 4,2 km/h N 3,3 C 17,5 C 17,7 km/h
29.03.2021 15:00 17,5 C 38 % 1030,6 hPa 0,0 l/m 2,6 km/h N 3,1 C 17,5 C 16,1 km/h
29.03.2021 16:00 17,8 C 37 % 1030,4 hPa 0,0 l/m 2,8 km/h N 3,1 C 17,8 C 16,5 km/h
29.03.2021 17:00 17,8 C 39 % 1030,2 hPa 0,0 l/m 1,5 km/h N 3,5 C 17,8 C 10,5 km/h
29.03.2021 18:00 17,4 C 40 % 1030,3 hPa 0,0 l/m 0,3 km/h N 3,5 C 17,4 C 8,5 km/h
29.03.2021 19:00 16,8 C 39 % 1030,4 hPa 0,0 l/m 2,4 km/h N 2,6 C 16,8 C 11,7 km/h
29.03.2021 20:00 16,2 C 39 % 1030,6 hPa 0,0 l/m 1,2 km/h N 2,3 C 16,2 C 9,3 km/h
29.03.2021 21:00 16,2 C 40 % 1030,7 hPa 0,0 l/m 3,7 km/h N 2,6 C 16,2 C 15,7 km/h
29.03.2021 22:00 16,3 C 42 % 1030,6 hPa 0,0 l/m 2,4 km/h N 3,2 C 16,3 C 8,9 km/h
29.03.2021 23:00 15,5 C 46 % 1030,5 hPa 0,0 l/m 0,0 km/h N 3,8 C 15,5 C 0,8 km/h
30.03.2021 00:00 15,0 C 47 % 1030,3 hPa 0,0 l/m 0,2 km/h N 3,6 C 15,0 C 4,4 km/h
30.03.2021 01:00 14,0 C 52 % 1030,4 hPa 0,0 l/m 0,0 km/h N 4,3 C 14,0 C 0,4 km/h
30.03.2021 02:00 13,2 C 53 % 1030,3 hPa 0,0 l/m 0,1 km/h N 3,9 C 13,2 C 1,6 km/h
30.03.2021 03:00 15,7 C 44 % 1029,9 hPa 0,0 l/m 4,3 km/h N 3,5 C 15,7 C 12,9 km/h
30.03.2021 04:00 16,1 C 43 % 1029,8 hPa 0,0 l/m 6,4 km/h N 3,5 C 15,9 C 18,5 km/h
30.03.2021 05:00 15,6 C 44 % 1029,8 hPa 0,0 l/m 5,0 km/h N 3,3 C 15,6 C 15,7 km/h
30.03.2021 06:00 14,7 C 45 % 1029,9 hPa 0,0 l/m 0,8 km/h N 2,9 C 14,7 C 5,6 km/h
30.03.2021 07:00 14,1 C 48 % 1030,2 hPa 0,0 l/m 1,5 km/h N 3,2 C 14,1 C 8,9 km/h
30.03.2021 08:00 15,0 C 45 % 1030,5 hPa 0,0 l/m 4,5 km/h N 3,2 C 15,0 C 17,7 km/h
30.03.2021 09:00 16,9 C 42 % 1030,7 hPa 0,0 l/m 6,5 km/h N 4,0 C 16,6 C 19,3 km/h
30.03.2021 10:00 18,0 C 42 % 1030,8 hPa 0,0 l/m 6,4 km/h N 4,7 C 17,9 C 21,3 km/h
30.03.2021 11:00 19,5 C 40 % 1030,8 hPa 0,0 l/m 3,3 km/h N 5,6 C 19,5 C 14,9 km/h
30.03.2021 12:00 20,5 C 39 % 1030,3 hPa 0,0 l/m 3,0 km/h N 5,9 C 20,5 C 16,1 km/h
30.03.2021 13:00 21,3 C 36 % 1029,9 hPa 0,0 l/m 3,1 km/h N 5,7 C 21,3 C 16,1 km/h
30.03.2021 14:00 21,8 C 36 % 1028,9 hPa 0,0 l/m 3,7 km/h N 6,0 C 21,8 C 16,1 km/h
30.03.2021 15:00 22,2 C 35 % 1028,1 hPa 0,0 l/m 3,2 km/h N 6,0 C 22,2 C 14,9 km/h
30.03.2021 16:00 22,3 C 34 % 1027,8 hPa 0,0 l/m 2,5 km/h N 5,7 C 22,3 C 11,7 km/h
30.03.2021 17:00 22,4 C 33 % 1027,3 hPa 0,0 l/m 2,7 km/h N 5,4 C 22,4 C 12,9 km/h
30.03.2021 18:00 21,4 C 35 % 1027,2 hPa 0,0 l/m 1,1 km/h N 5,3 C 21,4 C 6,4 km/h
30.03.2021 19:00 19,6 C 40 % 1027,3 hPa 0,0 l/m 0,2 km/h N 5,5 C 19,6 C 1,2 km/h
30.03.2021 20:00 18,0 C 43 % 1027,4 hPa 0,0 l/m 0,0 km/h N 5,3 C 18,0 C 0,4 km/h
30.03.2021 21:00 18,1 C 43 % 1027,2 hPa 0,0 l/m 0,1 km/h N 5,4 C 18,1 C 0,8 km/h
30.03.2021 22:00 17,7 C 46 % 1027,2 hPa 0,0 l/m 0,1 km/h N 5,9 C 17,7 C 0,8 km/h
30.03.2021 23:00 16,4 C 48 % 1027,3 hPa 0,0 l/m 0,0 km/h N 5,4 C 16,4 C 0,0 km/h
31.03.2021 00:00 13,8 C 52 % 1027,2 hPa 0,0 l/m 0,0 km/h N 4,2 C 13,8 C 0,0 km/h
31.03.2021 01:00 11,6 C 59 % 1027,2 hPa 0,0 l/m 0,0 km/h N 3,8 C 11,6 C 0,0 km/h
31.03.2021 02:00 10,4 C 64 % 1026,7 hPa 0,0 l/m 0,0 km/h N 3,9 C 10,4 C 0,0 km/h
31.03.2021 03:00 10,3 C 65 % 1026,5 hPa 0,0 l/m 0,0 km/h N 3,9 C 10,3 C 0,0 km/h
31.03.2021 04:00 9,3 C 68 % 1026,4 hPa 0,0 l/m 0,0 km/h N 3,5 C 9,3 C 0,4 km/h
31.03.2021 05:00 9,1 C 69 % 1026,3 hPa 0,0 l/m 0,0 km/h N 3,7 C 9,1 C 0,0 km/h
31.03.2021 06:00 8,9 C 69 % 1026,4 hPa 0,0 l/m 0,0 km/h N 3,4 C 8,9 C 0,0 km/h
31.03.2021 07:00 7,9 C 74 % 1026,8 hPa 0,0 l/m 0,0 km/h N 3,5 C 7,9 C 0,0 km/h
31.03.2021 08:00 9,0 C 75 % 1026,6 hPa 0,0 l/m 0,0 km/h N 4,9 C 9,0 C 0,0 km/h
31.03.2021 09:00 12,2 C 68 % 1026,2 hPa 0,0 l/m 0,0 km/h N 6,5 C 12,2 C 0,0 km/h
31.03.2021 10:00 16,9 C 55 % 1025,7 hPa 0,0 l/m 0,0 km/h N 7,7 C 16,9 C 0,0 km/h
31.03.2021 11:00 20,9 C 49 % 1025,2 hPa 0,0 l/m 0,0 km/h N 9,7 C 20,9 C 0,4 km/h
31.03.2021 12:00 23,1 C 47 % 1024,6 hPa 0,0 l/m 0,2 km/h N 11,0 C 23,1 C 3,2 km/h
31.03.2021 13:00 23,9 C 43 % 1023,9 hPa 0,0 l/m 0,4 km/h N 10,4 C 23,9 C 5,2 km/h
31.03.2021 14:00 24,4 C 43 % 1023,0 hPa 0,0 l/m 0,2 km/h N 10,8 C 24,4 C 4,8 km/h
31.03.2021 15:00 24,0 C 43 % 1022,1 hPa 0,0 l/m 0,1 km/h N 10,5 C 24,0 C 4,0 km/h
31.03.2021 16:00 23,3 C 43 % 1021,3 hPa 0,0 l/m 0,0 km/h N 10,1 C 23,3 C 2,0 km/h
31.03.2021 17:00 22,9 C 44 % 1020,8 hPa 0,0 l/m 0,0 km/h N 10,0 C 22,9 C 0,8 km/h
31.03.2021 18:00 22,0 C 45 % 1020,4 hPa 0,0 l/m 0,1 km/h N 9,6 C 22,0 C 0,8 km/h
31.03.2021 19:00 20,4 C 49 % 1020,2 hPa 0,0 l/m 0,0 km/h N 9,2 C 20,4 C 0,0 km/h
31.03.2021 20:00 17,1 C 55 % 1020,2 hPa 0,0 l/m 0,0 km/h N 8,0 C 17,1 C 0,0 km/h
31.03.2021 21:00 14,3 C 63 % 1020,2 hPa 0,0 l/m 0,0 km/h N 7,4 C 14,3 C 0,0 km/h
31.03.2021 22:00 12,3 C 70 % 1019,6 hPa 0,0 l/m 0,0 km/h N 6,9 C 12,3 C 0,0 km/h
31.03.2021 23:00 10,9 C 75 % 1019,1 hPa 0,0 l/m 0,0 km/h N 6,5 C 10,9 C 0,0 km/h
01.04.2021 00:00 10,0 C 78 % 1018,9 hPa 0,0 l/m 0,0 km/h N 6,3 C 10,0 C 0,0 km/h
01.04.2021 01:00 9,2 C 80 % 1018,6 hPa 0,0 l/m 0,0 km/h N 5,8 C 9,2 C 0,0 km/h
01.04.2021 02:00 8,6 C 80 % 1018,1 hPa 0,0 l/m 0,0 km/h N 5,4 C 8,6 C 0,0 km/h
01.04.2021 03:00 8,3 C 81 % 1017,7 hPa 0,0 l/m 0,0 km/h N 5,2 C 8,3 C 0,0 km/h
01.04.2021 04:00 7,6 C 81 % 1017,3 hPa 0,0 l/m 0,0 km/h N 4,6 C 7,6 C 0,0 km/h
01.04.2021 05:00 7,0 C 81 % 1017,1 hPa 0,0 l/m 0,0 km/h N 4,0 C 7,0 C 0,0 km/h
01.04.2021 06:00 6,6 C 81 % 1017,1 hPa 0,0 l/m 0,0 km/h N 3,6 C 6,6 C 0,0 km/h
01.04.2021 07:00 6,4 C 81 % 1017,1 hPa 0,0 l/m 0,0 km/h N 3,3 C 6,4 C 0,0 km/h
01.04.2021 08:00 9,1 C 81 % 1017,2 hPa 0,0 l/m 0,0 km/h N 5,9 C 9,1 C 0,0 km/h
01.04.2021 09:00 12,6 C 80 % 1016,8 hPa 0,0 l/m 0,3 km/h N 9,2 C 12,6 C 2,8 km/h
01.04.2021 10:00 19,5 C 46 % 1016,1 hPa 0,0 l/m 6,3 km/h N 7,5 C 19,4 C 21,7 km/h
01.04.2021 11:00 21,6 C 40 % 1015,5 hPa 0,0 l/m 6,8 km/h N 7,3 C 21,1 C 22,9 km/h
01.04.2021 12:00 22,3 C 37 % 1015,1 hPa 0,0 l/m 9,4 km/h N 6,9 C 21,4 C 28,6 km/h
01.04.2021 13:00 22,8 C 36 % 1014,5 hPa 0,0 l/m 6,4 km/h N 6,7 C 22,6 C 22,5 km/h
01.04.2021 14:00 23,7 C 33 % 1013,8 hPa 0,0 l/m 4,7 km/h N 6,3 C 23,7 C 22,5 km/h
01.04.2021 15:00 24,2 C 32 % 1012,9 hPa 0,0 l/m 4,3 km/h N 6,2 C 24,2 C 21,3 km/h
01.04.2021 16:00 24,1 C 33 % 1012,2 hPa 0,0 l/m 5,6 km/h N 6,6 C 24,1 C 20,5 km/h
01.04.2021 17:00 23,7 C 33 % 1011,8 hPa 0,0 l/m 4,2 km/h N 6,6 C 23,7 C 19,7 km/h
01.04.2021 18:00 23,1 C 34 % 1011,5 hPa 0,0 l/m 3,5 km/h N 6,1 C 23,1 C 20,5 km/h
01.04.2021 19:00 22,0 C 35 % 1011,7 hPa 0,0 l/m 4,2 km/h N 5,6 C 22,0 C 18,5 km/h
01.04.2021 20:00 20,4 C 40 % 1012,2 hPa 0,0 l/m 0,7 km/h N 6,2 C 20,4 C 6,4 km/h
01.04.2021 21:00 18,5 C 45 % 1012,5 hPa 0,0 l/m 0,1 km/h N 6,4 C 18,5 C 1,2 km/h
01.04.2021 22:00 16,4 C 51 % 1012,5 hPa 0,0 l/m 0,0 km/h N 6,1 C 16,4 C 1,6 km/h
01.04.2021 23:00 16,3 C 52 % 1012,6 hPa 0,0 l/m 0,0 km/h N 6,4 C 16,3 C 0,4 km/h
02.04.2021 00:00 16,4 C 54 % 1012,7 hPa 0,0 l/m 0,1 km/h N 7,1 C 16,4 C 1,6 km/h
02.04.2021 01:00 15,6 C 58 % 1012,7 hPa 0,0 l/m 0,1 km/h N 7,3 C 15,6 C 1,6 km/h
02.04.2021 02:00 15,0 C 60 % 1012,3 hPa 0,0 l/m 0,0 km/h N 7,3 C 15,0 C 0,4 km/h
02.04.2021 03:00 14,0 C 65 % 1012,1 hPa 0,3 l/m 0,0 km/h N 7,5 C 14,0 C 1,2 km/h
02.04.2021 04:00 14,2 C 64 % 1012,3 hPa 0,0 l/m 4,5 km/h N 7,4 C 14,2 C 14,9 km/h
02.04.2021 05:00 13,6 C 64 % 1012,8 hPa 0,0 l/m 4,5 km/h N 6,8 C 13,6 C 14,9 km/h
02.04.2021 06:00 12,9 C 67 % 1013,5 hPa 0,0 l/m 4,4 km/h N 6,8 C 12,9 C 14,9 km/h
02.04.2021 07:00 12,4 C 68 % 1014,3 hPa 0,0 l/m 5,2 km/h N 6,7 C 12,4 C 15,7 km/h
02.04.2021 08:00 11,9 C 69 % 1015,0 hPa 0,0 l/m 3,5 km/h N 6,4 C 11,9 C 14,9 km/h
02.04.2021 09:00 11,5 C 70 % 1015,6 hPa 0,0 l/m 2,5 km/h N 6,2 C 11,5 C 11,7 km/h
02.04.2021 10:00 11,2 C 72 % 1016,2 hPa 0,0 l/m 2,5 km/h N 6,2 C 11,2 C 13,7 km/h
02.04.2021 11:00 11,8 C 65 % 1015,9 hPa 0,0 l/m 4,4 km/h N 5,5 C 11,8 C 18,5 km/h
02.04.2021 12:00 13,1 C 59 % 1015,3 hPa 0,0 l/m 4,1 km/h N 5,2 C 13,1 C 18,5 km/h
02.04.2021 13:00 14,1 C 55 % 1014,7 hPa 0,0 l/m 4,4 km/h N 5,1 C 14,1 C 20,5 km/h
02.04.2021 14:00 15,2 C 51 % 1014,1 hPa 0,0 l/m 3,8 km/h N 5,2 C 15,2 C 17,3 km/h
02.04.2021 15:00 15,7 C 48 % 1013,4 hPa 0,0 l/m 4,5 km/h N 4,6 C 15,7 C 20,1 km/h
02.04.2021 16:00 15,4 C 47 % 1012,9 hPa 0,0 l/m 2,8 km/h N 4,3 C 15,4 C 16,1 km/h
02.04.2021 17:00 14,4 C 50 % 1012,7 hPa 0,0 l/m 2,6 km/h N 4,0 C 14,4 C 16,9 km/h
02.04.2021 18:00 13,4 C 51 % 1012,6 hPa 0,0 l/m 1,3 km/h N 3,5 C 13,4 C 9,2 km/h
02.04.2021 19:00 12,2 C 55 % 1012,9 hPa 0,0 l/m 1,3 km/h N 3,5 C 12,2 C 12,1 km/h
02.04.2021 20:00 11,3 C 58 % 1013,6 hPa 0,0 l/m 1,3 km/h N 3,2 C 11,3 C 8,4 km/h
02.04.2021 21:00 10,3 C 60 % 1014,1 hPa 0,0 l/m 0,3 km/h N 2,9 C 10,3 C 4,8 km/h
02.04.2021 22:00 10,0 C 60 % 1014,3 hPa 0,0 l/m 1,4 km/h N 2,6 C 10,0 C 9,3 km/h
02.04.2021 23:00 9,7 C 62 % 1014,4 hPa 0,0 l/m 2,0 km/h N 2,8 C 9,7 C 11,3 km/h
03.04.2021 00:00 9,1 C 62 % 1014,5 hPa 0,0 l/m 4,0 km/h N 2,2 C 9,1 C 17,3 km/h
03.04.2021 01:00 8,6 C 64 % 1014,6 hPa 0,0 l/m 3,0 km/h N 2,0 C 8,6 C 18,5 km/h
03.04.2021 02:00 7,8 C 65 % 1014,3 hPa 0,0 l/m 2,1 km/h N 1,6 C 7,8 C 10,1 km/h
03.04.2021 03:00 7,3 C 64 % 1014,2 hPa 0,0 l/m 2,1 km/h N 0,9 C 7,3 C 13,3 km/h
03.04.2021 04:00 7,1 C 65 % 1014,2 hPa 0,0 l/m 2,8 km/h N 1,0 C 7,1 C 13,7 km/h
03.04.2021 05:00 6,7 C 66 % 1014,7 hPa 0,0 l/m 5,4 km/h N 0,8 C 6,4 C 20,5 km/h
03.04.2021 06:00 6,3 C 66 % 1015,0 hPa 0,0 l/m 5,8 km/h N 0,4 C 5,7 C 16,5 km/h
03.04.2021 07:00 6,1 C 66 % 1015,8 hPa 0,0 l/m 6,7 km/h N 0,3 C 5,6 C 18,9 km/h
03.04.2021 08:00 6,4 C 63 % 1016,1 hPa 0,0 l/m 9,6 km/h N -0,1 C 4,0 C 25,8 km/h
03.04.2021 09:00 7,3 C 59 % 1016,0 hPa 0,0 l/m 11,0 km/h N -0,1 C 4,0 C 28,1 km/h
03.04.2021 10:00 8,0 C 59 % 1016,2 hPa 0,0 l/m 8,6 km/h N 0,5 C 6,3 C 29,0 km/h
03.04.2021 11:00 8,1 C 62 % 1016,8 hPa 0,0 l/m 11,2 km/h N 1,2 C 4,8 C 27,4 km/h
03.04.2021 12:00 8,0 C 63 % 1017,1 hPa 0,0 l/m 10,1 km/h N 1,4 C 5,4 C 27,4 km/h
03.04.2021 13:00 6,5 C 74 % 1017,6 hPa 2,3 l/m 7,2 km/h N 2,2 C 5,7 C 24,2 km/h
03.04.2021 14:00 7,0 C 75 % 1017,3 hPa 0,3 l/m 5,5 km/h N 2,9 C 6,8 C 21,7 km/h
03.04.2021 15:00 8,1 C 62 % 1017,1 hPa 0,0 l/m 8,4 km/h N 1,3 C 6,6 C 27,4 km/h
03.04.2021 16:00 8,4 C 58 % 1017,4 hPa 0,0 l/m 8,8 km/h N 0,7 C 6,6 C 24,9 km/h
03.04.2021 17:00 8,1 C 60 % 1017,4 hPa 0,0 l/m 3,7 km/h N 0,6 C 8,1 C 22,5 km/h
03.04.2021 18:00 7,4 C 65 % 1018,1 hPa 1,0 l/m 3,8 km/h N 1,1 C 7,4 C 17,7 km/h
03.04.2021 19:00 5,4 C 76 % 1018,9 hPa 0,0 l/m 3,7 km/h N 1,5 C 5,4 C 16,5 km/h
03.04.2021 20:00 5,5 C 71 % 1019,4 hPa 0,3 l/m 4,8 km/h N 0,6 C 5,5 C 18,8 km/h
03.04.2021 21:00 4,4 C 74 % 1020,3 hPa 0,0 l/m 4,8 km/h N 0,2 C 4,5 C 20,9 km/h
03.04.2021 22:00 4,8 C 73 % 1020,0 hPa 0,0 l/m 2,4 km/h N 0,4 C 4,8 C 16,9 km/h
03.04.2021 23:00 4,9 C 74 % 1020,4 hPa 0,0 l/m 4,0 km/h N 0,7 C 4,9 C 17,7 km/h
04.04.2021 00:00 3,5 C 78 % 1020,8 hPa 0,0 l/m 5,6 km/h N -0,1 C 3,5 C 19,3 km/h
04.04.2021 01:00 3,0 C 80 % 1021,3 hPa 0,5 l/m 6,4 km/h N -0,1 C 2,3 C 18,5 km/h
04.04.2021 02:00 2,8 C 81 % 1021,1 hPa 0,0 l/m 2,4 km/h N -0,2 C 2,8 C 12,9 km/h
04.04.2021 03:00 2,7 C 81 % 1021,2 hPa 0,0 l/m 5,6 km/h N -0,2 C 2,7 C 17,7 km/h
04.04.2021 04:00 3,0 C 81 % 1021,3 hPa 0,0 l/m 4,0 km/h N -0,1 C 3,0 C 13,7 km/h
04.04.2021 05:00 3,2 C 80 % 1021,3 hPa 0,0 l/m 2,4 km/h N -0,0 C 3,2 C 10,5 km/h
04.04.2021 06:00 3,3 C 79 % 1021,5 hPa 0,0 l/m 0,8 km/h N 0,0 C 3,3 C 8,9 km/h
04.04.2021 07:00 3,4 C 79 % 1021,8 hPa 0,0 l/m 0,8 km/h N 0,0 C 3,4 C 8,9 km/h
04.04.2021 08:00 3,7 C 77 % 1022,2 hPa 0,0 l/m 1,6 km/h N 0,1 C 3,7 C 16,1 km/h
04.04.2021 09:00 4,6 C 74 % 1022,5 hPa 0,0 l/m 2,3 km/h N 0,3 C 4,6 C 14,0 km/h
04.04.2021 10:00 5,3 C 71 % 1022,6 hPa 0,0 l/m 1,8 km/h N 0,4 C 5,3 C 11,3 km/h
04.04.2021 11:00 5,8 C 67 % 1022,3 hPa 0,0 l/m 2,0 km/h N 0,1 C 5,8 C 11,7 km/h
04.04.2021 12:00 7,0 C 60 % 1021,8 hPa 0,0 l/m 2,3 km/h N -0,3 C 7,0 C 13,3 km/h
04.04.2021 13:00 7,8 C 54 % 1021,3 hPa 0,0 l/m 2,9 km/h N -0,9 C 7,8 C 13,7 km/h
04.04.2021 14:00 8,1 C 51 % 1020,8 hPa 0,0 l/m 3,5 km/h N -1,5 C 8,1 C 16,5 km/h
04.04.2021 15:00 8,4 C 50 % 1020,2 hPa 0,0 l/m 4,5 km/h N -1,5 C 8,4 C 17,3 km/h
04.04.2021 16:00 9,1 C 46 % 1019,4 hPa 0,0 l/m 4,8 km/h N -1,9 C 9,1 C 18,9 km/h
04.04.2021 17:00 9,3 C 45 % 1018,9 hPa 0,0 l/m 3,2 km/h N -2,2 C 9,3 C 15,3 km/h
04.04.2021 18:00 8,8 C 44 % 1018,6 hPa 0,0 l/m 2,6 km/h N -2,8 C 8,8 C 11,7 km/h
04.04.2021 19:00 7,9 C 46 % 1018,2 hPa 0,0 l/m 0,6 km/h N -3,1 C 7,9 C 4,4 km/h
04.04.2021 20:00 5,4 C 53 % 1018,3 hPa 0,0 l/m 0,0 km/h N -3,4 C 5,4 C 0,0 km/h
04.04.2021 21:00 3,2 C 61 % 1018,2 hPa 0,0 l/m 0,0 km/h N -3,6 C 3,2 C 0,0 km/h
04.04.2021 22:00 2,7 C 66 % 1017,7 hPa 0,0 l/m 0,0 km/h N -3,1 C 2,7 C 0,0 km/h
04.04.2021 23:00 2,6 C 65 % 1017,2 hPa 0,0 l/m 0,0 km/h N -3,3 C 2,6 C 0,0 km/h
Min-Datum _ 29.03.21 01.04.21 01.04.21 - 29.03.21 - 04.04.21 04.04.21 29.03.21
_ Min-Zeit 02:30 14:30 18:30 - 00:00 - 21:15 01:00 00:00
Minimum _ 2,3 C 31 % 1011,5 hPa - 0,0 km/h - -3,8 C 1,7 C 0,0 km/h
Max-Datum _ 31.03.21 01.04.21 29.03.21 03.04.21 03.04.21 - 31.03.21 31.03.21 03.04.21
_ Max-Zeit 14:45 02:45 09:30 13:45 09:15 - 14:00 14:45 09:45
Maximum _ 24,6 C 81 % 1032,6 hPa 2,3 l/m 12,7 km/h
N
- 11,6 C 24,6 C 35,4 km/h
N
Durchschnitt _ 12,3 C 58 % 1021,5 hPa #4,7 l/m 2,5 km/h N 3,6 C 12,2 C 10,3 km/h